sensor_id;sensor_type;location;lat;lon;timestamp;temperature;humidity
24800;DHT22;12897;50.812;4.430;2023-11-21T00:01:16;11.30;99.90
24800;DHT22;12897;50.812;4.430;2023-11-21T00:03:43;11.20;99.90
24800;DHT22;12897;50.812;4.430;2023-11-21T00:06:11;11.20;99.90
24800;DHT22;12897;50.812;4.430;2023-11-21T00:08:38;11.20;99.90
24800;DHT22;12897;50.812;4.430;2023-11-21T00:11:06;11.20;99.90
24800;DHT22;12897;50.812;4.430;2023-11-21T00:13:33;11.20;99.90
24800;DHT22;12897;50.812;4.430;2023-11-21T00:16:01;11.20;99.90
24800;DHT22;12897;50.812;4.430;2023-11-21T00:18:29;11.20;99.90
24800;DHT22;12897;50.812;4.430;2023-11-21T00:20:56;11.20;99.90
24800;DHT22;12897;50.812;4.430;2023-11-21T00:23:25;11.20;99.90
24800;DHT22;12897;50.812;4.430;2023-11-21T00:25:53;11.10;99.90
24800;DHT22;12897;50.812;4.430;2023-11-21T00:28:20;11.10;99.90
24800;DHT22;12897;50.812;4.430;2023-11-21T00:30:49;11.00;99.90
24800;DHT22;12897;50.812;4.430;2023-11-21T00:33:16;11.10;99.90
24800;DHT22;12897;50.812;4.430;2023-11-21T00:35:44;11.00;99.90
24800;DHT22;12897;50.812;4.430;2023-11-21T00:38:11;10.90;99.90
24800;DHT22;12897;50.812;4.430;2023-11-21T00:40:39;11.00;99.90
24800;DHT22;12897;50.812;4.430;2023-11-21T00:43:06;11.00;99.90
24800;DHT22;12897;50.812;4.430;2023-11-21T00:45:34;11.00;99.90
24800;DHT22;12897;50.812;4.430;2023-11-21T00:48:03;11.00;99.90
24800;DHT22;12897;50.812;4.430;2023-11-21T00:50:31;11.00;99.90
24800;DHT22;12897;50.812;4.430;2023-11-21T00:52:59;11.00;99.90
24800;DHT22;12897;50.812;4.430;2023-11-21T00:55:26;11.00;99.90
24800;DHT22;12897;50.812;4.430;2023-11-21T00:57:54;10.90;99.90
24800;DHT22;12897;50.812;4.430;2023-11-21T01:00:22;10.90;99.90
24800;DHT22;12897;50.812;4.430;2023-11-21T01:02:50;10.80;99.90
24800;DHT22;12897;50.812;4.430;2023-11-21T01:05:17;10.80;99.90
24800;DHT22;12897;50.812;4.430;2023-11-21T01:07:46;10.80;99.90
24800;DHT22;12897;50.812;4.430;2023-11-21T01:10:14;10.80;99.90
24800;DHT22;12897;50.812;4.430;2023-11-21T01:12:43;10.70;99.90
24800;DHT22;12897;50.812;4.430;2023-11-21T01:15:10;10.70;99.90
24800;DHT22;12897;50.812;4.430;2023-11-21T01:17:38;10.70;99.90
24800;DHT22;12897;50.812;4.430;2023-11-21T01:20:07;10.80;99.90
24800;DHT22;12897;50.812;4.430;2023-11-21T01:22:36;10.90;99.90
24800;DHT22;12897;50.812;4.430;2023-11-21T01:25:04;10.80;99.90
24800;DHT22;12897;50.812;4.430;2023-11-21T01:27:36;10.70;99.90
24800;DHT22;12897;50.812;4.430;2023-11-21T01:30:05;10.80;99.90
24800;DHT22;12897;50.812;4.430;2023-11-21T01:32:34;10.80;99.90
24800;DHT22;12897;50.812;4.430;2023-11-21T01:35:01;10.80;99.90
24800;DHT22;12897;50.812;4.430;2023-11-21T01:37:29;10.80;99.90
24800;DHT22;12897;50.812;4.430;2023-11-21T01:39:57;10.70;99.90
24800;DHT22;12897;50.812;4.430;2023-11-21T01:42:25;10.60;99.90
24800;DHT22;12897;50.812;4.430;2023-11-21T01:44:54;10.70;99.90
24800;DHT22;12897;50.812;4.430;2023-11-21T01:47:22;10.70;99.90
24800;DHT22;12897;50.812;4.430;2023-11-21T01:49:50;10.80;99.90
24800;DHT22;12897;50.812;4.430;2023-11-21T01:52:17;10.90;99.90
24800;DHT22;12897;50.812;4.430;2023-11-21T01:54:46;10.90;99.90
24800;DHT22;12897;50.812;4.430;2023-11-21T01:57:14;10.90;99.90
24800;DHT22;12897;50.812;4.430;2023-11-21T01:59:43;10.90;99.90
24800;DHT22;12897;50.812;4.430;2023-11-21T02:02:11;11.00;99.90
24800;DHT22;12897;50.812;4.430;2023-11-21T02:04:39;10.90;99.90
24800;DHT22;12897;50.812;4.430;2023-11-21T02:07:07;11.00;99.90
24800;DHT22;12897;50.812;4.430;2023-11-21T02:09:35;11.00;99.90
24800;DHT22;12897;50.812;4.430;2023-11-21T02:12:04;11.00;99.90
24800;DHT22;12897;50.812;4.430;2023-11-21T02:14:34;11.10;99.90
24800;DHT22;12897;50.812;4.430;2023-11-21T02:17:01;11.20;99.90
24800;DHT22;12897;50.812;4.430;2023-11-21T02:19:30;11.20;99.90
24800;DHT22;12897;50.812;4.430;2023-11-21T02:21:59;11.10;99.90
24800;DHT22;12897;50.812;4.430;2023-11-21T02:24:29;11.10;99.90
24800;DHT22;12897;50.812;4.430;2023-11-21T02:26:58;11.20;99.90
24800;DHT22;12897;50.812;4.430;2023-11-21T02:29:26;11.30;99.90
24800;DHT22;12897;50.812;4.430;2023-11-21T02:31:56;11.30;99.90
24800;DHT22;12897;50.812;4.430;2023-11-21T02:34:23;11.30;99.90
24800;DHT22;12897;50.812;4.430;2023-11-21T02:36:54;11.20;99.90
24800;DHT22;12897;50.812;4.430;2023-11-21T02:39:22;11.00;99.90
24800;DHT22;12897;50.812;4.430;2023-11-21T02:41:50;11.00;99.90
24800;DHT22;12897;50.812;4.430;2023-11-21T02:44:18;11.00;99.90
24800;DHT22;12897;50.812;4.430;2023-11-21T02:46:45;11.10;99.90
24800;DHT22;12897;50.812;4.430;2023-11-21T02:49:13;11.00;99.90
24800;DHT22;12897;50.812;4.430;2023-11-21T02:51:41;10.90;99.90
24800;DHT22;12897;50.812;4.430;2023-11-21T02:54:08;10.70;99.90
24800;DHT22;12897;50.812;4.430;2023-11-21T02:56:36;10.80;99.90
24800;DHT22;12897;50.812;4.430;2023-11-21T02:59:04;10.80;99.90
24800;DHT22;12897;50.812;4.430;2023-11-21T03:01:31;10.90;99.90
24800;DHT22;12897;50.812;4.430;2023-11-21T03:03:59;11.00;99.90
24800;DHT22;12897;50.812;4.430;2023-11-21T03:06:26;11.00;99.90
24800;DHT22;12897;50.812;4.430;2023-11-21T03:08:54;11.00;99.90
24800;DHT22;12897;50.812;4.430;2023-11-21T03:11:22;11.00;99.90
24800;DHT22;12897;50.812;4.430;2023-11-21T03:13:49;11.00;99.90
24800;DHT22;12897;50.812;4.430;2023-11-21T03:16:17;11.00;99.90
24800;DHT22;12897;50.812;4.430;2023-11-21T03:18:45;11.10;99.90
24800;DHT22;12897;50.812;4.430;2023-11-21T03:21:13;11.20;99.90
24800;DHT22;12897;50.812;4.430;2023-11-21T03:23:40;11.30;99.90
24800;DHT22;12897;50.812;4.430;2023-11-21T03:26:11;11.20;99.90
24800;DHT22;12897;50.812;4.430;2023-11-21T03:28:39;11.20;99.90
24800;DHT22;12897;50.812;4.430;2023-11-21T03:31:07;11.30;99.90
24800;DHT22;12897;50.812;4.430;2023-11-21T03:33:36;11.40;99.90
24800;DHT22;12897;50.812;4.430;2023-11-21T03:36:03;11.30;99.90
24800;DHT22;12897;50.812;4.430;2023-11-21T03:38:31;11.30;99.90
24800;DHT22;12897;50.812;4.430;2023-11-21T03:40:59;11.30;99.90
24800;DHT22;12897;50.812;4.430;2023-11-21T03:43:26;11.20;99.90
24800;DHT22;12897;50.812;4.430;2023-11-21T03:45:54;11.20;99.90
24800;DHT22;12897;50.812;4.430;2023-11-21T03:48:21;11.20;99.90
24800;DHT22;12897;50.812;4.430;2023-11-21T03:50:49;11.30;99.90
24800;DHT22;12897;50.812;4.430;2023-11-21T03:53:16;11.30;99.90
24800;DHT22;12897;50.812;4.430;2023-11-21T03:55:44;11.40;99.90
24800;DHT22;12897;50.812;4.430;2023-11-21T03:58:12;11.40;99.90
24800;DHT22;12897;50.812;4.430;2023-11-21T04:00:39;11.40;99.90
24800;DHT22;12897;50.812;4.430;2023-11-21T04:03:07;11.40;99.90
24800;DHT22;12897;50.812;4.430;2023-11-21T04:05:35;11.30;99.90
24800;DHT22;12897;50.812;4.430;2023-11-21T04:08:03;11.30;99.90
24800;DHT22;12897;50.812;4.430;2023-11-21T04:10:30;11.30;99.90
24800;DHT22;12897;50.812;4.430;2023-11-21T04:12:58;11.20;99.90
24800;DHT22;12897;50.812;4.430;2023-11-21T04:15:26;11.20;99.90
24800;DHT22;12897;50.812;4.430;2023-11-21T04:17:54;11.30;99.90
24800;DHT22;12897;50.812;4.430;2023-11-21T04:20:23;11.30;99.90
24800;DHT22;12897;50.812;4.430;2023-11-21T04:22:50;11.20;99.90
24800;DHT22;12897;50.812;4.430;2023-11-21T04:25:18;11.30;99.90
24800;DHT22;12897;50.812;4.430;2023-11-21T04:27:45;11.30;99.90
24800;DHT22;12897;50.812;4.430;2023-11-21T04:30:14;11.30;99.90
24800;DHT22;12897;50.812;4.430;2023-11-21T04:32:41;11.20;99.90
24800;DHT22;12897;50.812;4.430;2023-11-21T04:35:09;11.40;99.90
24800;DHT22;12897;50.812;4.430;2023-11-21T04:37:37;11.40;99.90
24800;DHT22;12897;50.812;4.430;2023-11-21T04:40:05;11.40;99.90
24800;DHT22;12897;50.812;4.430;2023-11-21T04:42:34;11.50;99.90
24800;DHT22;12897;50.812;4.430;2023-11-21T04:45:04;11.40;99.90
24800;DHT22;12897;50.812;4.430;2023-11-21T04:47:33;11.40;99.90
24800;DHT22;12897;50.812;4.430;2023-11-21T04:50:02;11.50;99.90
24800;DHT22;12897;50.812;4.430;2023-11-21T04:52:30;11.50;99.90
24800;DHT22;12897;50.812;4.430;2023-11-21T04:54:57;11.40;99.90
24800;DHT22;12897;50.812;4.430;2023-11-21T04:57:25;11.40;99.90
24800;DHT22;12897;50.812;4.430;2023-11-21T04:59:54;11.40;99.90
24800;DHT22;12897;50.812;4.430;2023-11-21T05:02:22;11.40;99.90
24800;DHT22;12897;50.812;4.430;2023-11-21T05:04:49;11.40;99.90
24800;DHT22;12897;50.812;4.430;2023-11-21T05:07:19;11.50;99.90
24800;DHT22;12897;50.812;4.430;2023-11-21T05:09:46;11.60;99.90
24800;DHT22;12897;50.812;4.430;2023-11-21T05:12:14;11.50;99.90
24800;DHT22;12897;50.812;4.430;2023-11-21T05:14:41;11.40;99.90
24800;DHT22;12897;50.812;4.430;2023-11-21T05:17:09;11.30;99.90
24800;DHT22;12897;50.812;4.430;2023-11-21T05:19:37;11.40;99.90
24800;DHT22;12897;50.812;4.430;2023-11-21T05:22:05;11.30;99.90
24800;DHT22;12897;50.812;4.430;2023-11-21T05:24:35;11.30;99.90
24800;DHT22;12897;50.812;4.430;2023-11-21T05:27:02;11.20;99.90
24800;DHT22;12897;50.812;4.430;2023-11-21T05:29:30;11.30;99.90
24800;DHT22;12897;50.812;4.430;2023-11-21T05:31:57;11.30;99.90
24800;DHT22;12897;50.812;4.430;2023-11-21T05:34:25;11.30;99.90
24800;DHT22;12897;50.812;4.430;2023-11-21T05:36:52;11.30;99.90
24800;DHT22;12897;50.812;4.430;2023-11-21T05:39:20;11.50;99.90
24800;DHT22;12897;50.812;4.430;2023-11-21T05:41:48;11.50;99.90
24800;DHT22;12897;50.812;4.430;2023-11-21T05:44:16;11.60;99.90
24800;DHT22;12897;50.812;4.430;2023-11-21T05:46:44;11.50;99.90
24800;DHT22;12897;50.812;4.430;2023-11-21T05:49:11;11.50;99.90
24800;DHT22;12897;50.812;4.430;2023-11-21T05:51:39;11.40;99.90
24800;DHT22;12897;50.812;4.430;2023-11-21T05:54:06;11.40;99.90
24800;DHT22;12897;50.812;4.430;2023-11-21T05:56:34;11.50;99.90
24800;DHT22;12897;50.812;4.430;2023-11-21T05:59:02;11.50;99.90
24800;DHT22;12897;50.812;4.430;2023-11-21T06:01:30;11.50;99.90
24800;DHT22;12897;50.812;4.430;2023-11-21T06:03:57;11.50;99.90
24800;DHT22;12897;50.812;4.430;2023-11-21T06:06:25;11.30;99.90
24800;DHT22;12897;50.812;4.430;2023-11-21T06:08:53;11.40;99.90
24800;DHT22;12897;50.812;4.430;2023-11-21T06:11:20;11.50;99.90
24800;DHT22;12897;50.812;4.430;2023-11-21T06:13:48;11.50;99.90
24800;DHT22;12897;50.812;4.430;2023-11-21T06:16:16;11.40;99.90
24800;DHT22;12897;50.812;4.430;2023-11-21T06:18:48;11.40;99.90
24800;DHT22;12897;50.812;4.430;2023-11-21T06:21:15;11.50;99.90
24800;DHT22;12897;50.812;4.430;2023-11-21T06:23:44;11.60;99.90
24800;DHT22;12897;50.812;4.430;2023-11-21T06:26:12;11.60;99.90
24800;DHT22;12897;50.812;4.430;2023-11-21T06:28:41;11.60;99.90
24800;DHT22;12897;50.812;4.430;2023-11-21T06:31:13;11.60;99.90
24800;DHT22;12897;50.812;4.430;2023-11-21T06:33:44;11.40;99.90
24800;DHT22;12897;50.812;4.430;2023-11-21T06:36:11;11.50;99.90
24800;DHT22;12897;50.812;4.430;2023-11-21T06:38:40;11.60;99.90
24800;DHT22;12897;50.812;4.430;2023-11-21T06:41:08;11.60;99.90
24800;DHT22;12897;50.812;4.430;2023-11-21T06:43:36;11.60;99.90
24800;DHT22;12897;50.812;4.430;2023-11-21T06:46:03;11.60;99.90
24800;DHT22;12897;50.812;4.430;2023-11-21T06:48:36;11.50;99.90
24800;DHT22;12897;50.812;4.430;2023-11-21T06:51:05;11.60;99.90
24800;DHT22;12897;50.812;4.430;2023-11-21T06:53:32;11.60;99.90
24800;DHT22;12897;50.812;4.430;2023-11-21T06:56:03;11.50;99.90
24800;DHT22;12897;50.812;4.430;2023-11-21T06:58:30;11.50;99.90
24800;DHT22;12897;50.812;4.430;2023-11-21T07:01:05;11.50;99.90
24800;DHT22;12897;50.812;4.430;2023-11-21T07:03:33;11.60;99.90
24800;DHT22;12897;50.812;4.430;2023-11-21T07:06:03;11.60;99.90
24800;DHT22;12897;50.812;4.430;2023-11-21T07:08:35;11.50;99.90
24800;DHT22;12897;50.812;4.430;2023-11-21T07:11:08;11.60;99.90
24800;DHT22;12897;50.812;4.430;2023-11-21T07:13:40;11.50;99.90
24800;DHT22;12897;50.812;4.430;2023-11-21T07:16:07;11.60;99.90
24800;DHT22;12897;50.812;4.430;2023-11-21T07:18:36;11.70;99.90
24800;DHT22;12897;50.812;4.430;2023-11-21T07:21:08;11.70;99.90
24800;DHT22;12897;50.812;4.430;2023-11-21T07:23:37;11.80;99.90
24800;DHT22;12897;50.812;4.430;2023-11-21T07:26:10;11.80;99.90
24800;DHT22;12897;50.812;4.430;2023-11-21T07:28:36;11.70;99.90
24800;DHT22;12897;50.812;4.430;2023-11-21T07:31:08;11.60;99.90
24800;DHT22;12897;50.812;4.430;2023-11-21T07:33:35;11.70;99.90
24800;DHT22;12897;50.812;4.430;2023-11-21T07:36:02;11.70;99.90
24800;DHT22;12897;50.812;4.430;2023-11-21T07:38:31;11.80;99.90
24800;DHT22;12897;50.812;4.430;2023-11-21T07:41:00;11.80;99.90
24800;DHT22;12897;50.812;4.430;2023-11-21T07:43:30;11.70;99.90
24800;DHT22;12897;50.812;4.430;2023-11-21T07:45:59;11.70;99.90
24800;DHT22;12897;50.812;4.430;2023-11-21T07:48:27;11.70;99.90
24800;DHT22;12897;50.812;4.430;2023-11-21T07:50:56;11.80;99.90
24800;DHT22;12897;50.812;4.430;2023-11-21T07:53:26;11.80;99.90
24800;DHT22;12897;50.812;4.430;2023-11-21T07:55:57;11.80;99.90
24800;DHT22;12897;50.812;4.430;2023-11-21T07:58:30;11.80;99.90
24800;DHT22;12897;50.812;4.430;2023-11-21T08:01:01;11.90;99.90
24800;DHT22;12897;50.812;4.430;2023-11-21T08:03:31;11.90;99.90
24800;DHT22;12897;50.812;4.430;2023-11-21T08:05:59;12.00;99.90
24800;DHT22;12897;50.812;4.430;2023-11-21T08:08:29;12.00;99.90
24800;DHT22;12897;50.812;4.430;2023-11-21T08:11:06;12.00;99.90
24800;DHT22;12897;50.812;4.430;2023-11-21T08:14:06;11.90;99.90
24800;DHT22;12897;50.812;4.430;2023-11-21T08:16:29;11.90;99.90
24800;DHT22;12897;50.812;4.430;2023-11-21T08:19:08;11.80;99.90
24800;DHT22;12897;50.812;4.430;2023-11-21T08:21:39;11.80;99.90
24800;DHT22;12897;50.812;4.430;2023-11-21T08:24:53;11.80;99.90
24800;DHT22;12897;50.812;4.430;2023-11-21T08:26:41;11.80;99.90
24800;DHT22;12897;50.812;4.430;2023-11-21T08:29:17;12.00;99.90
24800;DHT22;12897;50.812;4.430;2023-11-21T08:31:50;12.00;99.90
24800;DHT22;12897;50.812;4.430;2023-11-21T08:37:44;12.00;99.90
24800;DHT22;12897;50.812;4.430;2023-11-21T08:40:21;12.00;99.90
24800;DHT22;12897;50.812;4.430;2023-11-21T08:43:11;12.10;99.90
24800;DHT22;12897;50.812;4.430;2023-11-21T08:45:41;12.10;99.90
24800;DHT22;12897;50.812;4.430;2023-11-21T08:48:08;12.10;99.90
24800;DHT22;12897;50.812;4.430;2023-11-21T08:50:47;12.10;99.90
24800;DHT22;12897;50.812;4.430;2023-11-21T08:53:20;12.20;99.90
24800;DHT22;12897;50.812;4.430;2023-11-21T08:55:45;12.20;99.90
24800;DHT22;12897;50.812;4.430;2023-11-21T08:58:13;12.30;99.90
24800;DHT22;12897;50.812;4.430;2023-11-21T09:00:48;12.30;99.90
24800;DHT22;12897;50.812;4.430;2023-11-21T09:03:23;12.30;99.90
24800;DHT22;12897;50.812;4.430;2023-11-21T09:05:51;12.20;99.90
24800;DHT22;12897;50.812;4.430;2023-11-21T09:08:24;12.10;99.90
24800;DHT22;12897;50.812;4.430;2023-11-21T09:11:04;12.00;99.90
24800;DHT22;12897;50.812;4.430;2023-11-21T09:13:45;12.20;99.90
24800;DHT22;12897;50.812;4.430;2023-11-21T09:16:34;12.20;99.90
24800;DHT22;12897;50.812;4.430;2023-11-21T09:19:08;12.30;99.90
24800;DHT22;12897;50.812;4.430;2023-11-21T09:21:49;12.30;99.90
24800;DHT22;12897;50.812;4.430;2023-11-21T09:24:23;12.30;99.90
24800;DHT22;12897;50.812;4.430;2023-11-21T09:26:50;12.20;99.90
24800;DHT22;12897;50.812;4.430;2023-11-21T09:29:18;12.20;99.90
24800;DHT22;12897;50.812;4.430;2023-11-21T09:31:45;12.20;99.90
24800;DHT22;12897;50.812;4.430;2023-11-21T09:34:13;12.30;99.90
24800;DHT22;12897;50.812;4.430;2023-11-21T09:36:41;12.30;99.90
24800;DHT22;12897;50.812;4.430;2023-11-21T09:39:10;12.20;99.90
24800;DHT22;12897;50.812;4.430;2023-11-21T09:41:50;12.10;99.90
24800;DHT22;12897;50.812;4.430;2023-11-21T09:44:35;12.10;99.90
24800;DHT22;12897;50.812;4.430;2023-11-21T09:47:00;12.20;99.90
24800;DHT22;12897;50.812;4.430;2023-11-21T09:49:28;12.20;99.90
24800;DHT22;12897;50.812;4.430;2023-11-21T09:51:59;12.20;99.90
24800;DHT22;12897;50.812;4.430;2023-11-21T09:54:26;12.30;99.90
24800;DHT22;12897;50.812;4.430;2023-11-21T09:56:57;12.40;99.90
24800;DHT22;12897;50.812;4.430;2023-11-21T09:59:25;12.40;99.90
24800;DHT22;12897;50.812;4.430;2023-11-21T10:01:59;12.40;99.90
24800;DHT22;12897;50.812;4.430;2023-11-21T10:04:29;12.30;99.90
24800;DHT22;12897;50.812;4.430;2023-11-21T10:07:02;12.40;99.90
24800;DHT22;12897;50.812;4.430;2023-11-21T10:09:30;12.40;99.90
24800;DHT22;12897;50.812;4.430;2023-11-21T10:11:58;12.40;99.90
24800;DHT22;12897;50.812;4.430;2023-11-21T10:14:27;12.30;99.90
24800;DHT22;12897;50.812;4.430;2023-11-21T10:16:56;12.40;99.90
24800;DHT22;12897;50.812;4.430;2023-11-21T10:19:25;12.50;99.90
24800;DHT22;12897;50.812;4.430;2023-11-21T10:21:53;12.40;99.90
24800;DHT22;12897;50.812;4.430;2023-11-21T10:24:23;12.30;99.90
24800;DHT22;12897;50.812;4.430;2023-11-21T10:26:50;12.20;99.90
24800;DHT22;12897;50.812;4.430;2023-11-21T10:29:20;12.20;99.90
24800;DHT22;12897;50.812;4.430;2023-11-21T10:31:52;11.90;99.90
24800;DHT22;12897;50.812;4.430;2023-11-21T10:34:21;11.90;99.90
24800;DHT22;12897;50.812;4.430;2023-11-21T10:36:49;12.00;99.90
24800;DHT22;12897;50.812;4.430;2023-11-21T10:39:20;12.10;99.90
24800;DHT22;12897;50.812;4.430;2023-11-21T10:41:50;12.10;99.90
24800;DHT22;12897;50.812;4.430;2023-11-21T10:44:18;12.00;99.90
24800;DHT22;12897;50.812;4.430;2023-11-21T10:46:51;12.10;99.90
24800;DHT22;12897;50.812;4.430;2023-11-21T10:49:21;12.20;99.90
24800;DHT22;12897;50.812;4.430;2023-11-21T10:51:52;12.20;99.90
24800;DHT22;12897;50.812;4.430;2023-11-21T10:54:20;12.20;99.90
24800;DHT22;12897;50.812;4.430;2023-11-21T10:56:50;12.20;99.90
24800;DHT22;12897;50.812;4.430;2023-11-21T10:59:18;12.20;99.90
24800;DHT22;12897;50.812;4.430;2023-11-21T11:01:48;12.30;99.90
24800;DHT22;12897;50.812;4.430;2023-11-21T11:04:20;12.40;99.90
24800;DHT22;12897;50.812;4.430;2023-11-21T11:06:54;12.30;99.90
24800;DHT22;12897;50.812;4.430;2023-11-21T11:09:20;12.40;99.90
24800;DHT22;12897;50.812;4.430;2023-11-21T11:11:48;12.40;99.90
24800;DHT22;12897;50.812;4.430;2023-11-21T11:14:16;12.40;99.90
24800;DHT22;12897;50.812;4.430;2023-11-21T11:16:45;12.40;99.90
24800;DHT22;12897;50.812;4.430;2023-11-21T11:19:15;12.50;99.90
24800;DHT22;12897;50.812;4.430;2023-11-21T11:22:13;12.40;99.90
24800;DHT22;12897;50.812;4.430;2023-11-21T11:30:39;12.30;99.90
24800;DHT22;12897;50.812;4.430;2023-11-21T11:33:31;12.30;99.90
24800;DHT22;12897;50.812;4.430;2023-11-21T11:36:02;12.40;99.90
24800;DHT22;12897;50.812;4.430;2023-11-21T11:38:34;12.30;99.90
24800;DHT22;12897;50.812;4.430;2023-11-21T11:41:03;12.40;99.90
24800;DHT22;12897;50.812;4.430;2023-11-21T11:43:32;12.40;99.90
24800;DHT22;12897;50.812;4.430;2023-11-21T11:46:03;12.50;99.90
24800;DHT22;12897;50.812;4.430;2023-11-21T11:48:34;12.40;99.90
24800;DHT22;12897;50.812;4.430;2023-11-21T11:51:03;12.50;99.90
24800;DHT22;12897;50.812;4.430;2023-11-21T11:53:36;12.70;99.90
24800;DHT22;12897;50.812;4.430;2023-11-21T11:56:27;12.70;99.90
24800;DHT22;12897;50.812;4.430;2023-11-21T11:58:58;12.60;99.90
24800;DHT22;12897;50.812;4.430;2023-11-21T12:01:28;12.40;99.90
24800;DHT22;12897;50.812;4.430;2023-11-21T12:06:52;12.50;99.90
24800;DHT22;12897;50.812;4.430;2023-11-21T12:09:24;12.60;99.90
24800;DHT22;12897;50.812;4.430;2023-11-21T12:11:54;12.60;99.90
24800;DHT22;12897;50.812;4.430;2023-11-21T12:14:22;12.50;99.90
24800;DHT22;12897;50.812;4.430;2023-11-21T12:16:50;12.50;99.90
24800;DHT22;12897;50.812;4.430;2023-11-21T12:19:18;12.40;99.90
24800;DHT22;12897;50.812;4.430;2023-11-21T12:21:47;12.30;99.90
24800;DHT22;12897;50.812;4.430;2023-11-21T12:24:15;12.10;99.90
24800;DHT22;12897;50.812;4.430;2023-11-21T12:26:43;12.20;99.90
24800;DHT22;12897;50.812;4.430;2023-11-21T12:29:11;12.20;99.90
24800;DHT22;12897;50.812;4.430;2023-11-21T12:31:39;12.30;99.90
24800;DHT22;12897;50.812;4.430;2023-11-21T12:34:07;12.40;99.90
24800;DHT22;12897;50.812;4.430;2023-11-21T12:36:36;12.50;99.90
24800;DHT22;12897;50.812;4.430;2023-11-21T12:39:03;12.40;99.90
24800;DHT22;12897;50.812;4.430;2023-11-21T12:41:31;12.50;99.90
24800;DHT22;12897;50.812;4.430;2023-11-21T12:43:59;12.40;99.90
24800;DHT22;12897;50.812;4.430;2023-11-21T12:46:26;12.30;99.90
24800;DHT22;12897;50.812;4.430;2023-11-21T12:48:56;12.30;99.90
24800;DHT22;12897;50.812;4.430;2023-11-21T12:51:25;12.30;99.90
24800;DHT22;12897;50.812;4.430;2023-11-21T12:53:53;12.30;99.90
24800;DHT22;12897;50.812;4.430;2023-11-21T12:56:21;12.40;99.90
24800;DHT22;12897;50.812;4.430;2023-11-21T12:58:53;12.40;99.90
24800;DHT22;12897;50.812;4.430;2023-11-21T13:01:25;12.40;99.90
24800;DHT22;12897;50.812;4.430;2023-11-21T13:03:56;12.40;99.90
24800;DHT22;12897;50.812;4.430;2023-11-21T13:06:25;12.40;99.90
24800;DHT22;12897;50.812;4.430;2023-11-21T13:08:53;12.60;99.90
24800;DHT22;12897;50.812;4.430;2023-11-21T13:11:21;12.50;99.90
24800;DHT22;12897;50.812;4.430;2023-11-21T13:13:51;12.60;99.90
24800;DHT22;12897;50.812;4.430;2023-11-21T13:16:20;12.40;99.90
24800;DHT22;12897;50.812;4.430;2023-11-21T13:18:48;12.50;99.90
24800;DHT22;12897;50.812;4.430;2023-11-21T13:21:15;12.40;99.90
24800;DHT22;12897;50.812;4.430;2023-11-21T13:23:43;12.40;99.90
24800;DHT22;12897;50.812;4.430;2023-11-21T13:26:13;12.30;99.90
24800;DHT22;12897;50.812;4.430;2023-11-21T13:28:41;12.20;99.90
24800;DHT22;12897;50.812;4.430;2023-11-21T13:31:10;12.00;99.90
24800;DHT22;12897;50.812;4.430;2023-11-21T13:33:39;12.00;99.90
24800;DHT22;12897;50.812;4.430;2023-11-21T13:36:09;12.10;99.90
24800;DHT22;12897;50.812;4.430;2023-11-21T13:38:37;12.00;99.90
24800;DHT22;12897;50.812;4.430;2023-11-21T13:41:25;12.10;99.90
24800;DHT22;12897;50.812;4.430;2023-11-21T13:43:57;12.10;99.90
24800;DHT22;12897;50.812;4.430;2023-11-21T13:46:27;12.00;99.90
24800;DHT22;12897;50.812;4.430;2023-11-21T13:48:54;12.00;99.90
24800;DHT22;12897;50.812;4.430;2023-11-21T13:51:22;11.90;99.90
24800;DHT22;12897;50.812;4.430;2023-11-21T13:53:52;11.90;99.90
24800;DHT22;12897;50.812;4.430;2023-11-21T13:56:21;12.10;99.90
24800;DHT22;12897;50.812;4.430;2023-11-21T13:58:53;12.10;99.90
24800;DHT22;12897;50.812;4.430;2023-11-21T14:01:23;12.10;99.90
24800;DHT22;12897;50.812;4.430;2023-11-21T14:04:01;12.10;99.90
24800;DHT22;12897;50.812;4.430;2023-11-21T14:06:36;12.10;99.90
24800;DHT22;12897;50.812;4.430;2023-11-21T14:09:05;12.10;99.90
24800;DHT22;12897;50.812;4.430;2023-11-21T14:11:34;12.10;99.90
24800;DHT22;12897;50.812;4.430;2023-11-21T14:14:03;12.00;99.90
24800;DHT22;12897;50.812;4.430;2023-11-21T14:16:32;12.20;99.90
24800;DHT22;12897;50.812;4.430;2023-11-21T14:18:59;12.20;99.90
24800;DHT22;12897;50.812;4.430;2023-11-21T14:21:28;12.20;99.90
24800;DHT22;12897;50.812;4.430;2023-11-21T14:23:57;12.10;99.90
24800;DHT22;12897;50.812;4.430;2023-11-21T14:26:25;12.10;99.90
24800;DHT22;12897;50.812;4.430;2023-11-21T14:28:57;12.20;99.90
24800;DHT22;12897;50.812;4.430;2023-11-21T14:31:25;12.20;99.90
24800;DHT22;12897;50.812;4.430;2023-11-21T14:33:55;12.00;99.90
24800;DHT22;12897;50.812;4.430;2023-11-21T14:36:22;12.10;99.90
24800;DHT22;12897;50.812;4.430;2023-11-21T14:38:50;12.10;99.90
24800;DHT22;12897;50.812;4.430;2023-11-21T14:41:18;12.10;99.90
24800;DHT22;12897;50.812;4.430;2023-11-21T14:43:47;12.20;99.90
24800;DHT22;12897;50.812;4.430;2023-11-21T14:46:16;12.10;99.90
24800;DHT22;12897;50.812;4.430;2023-11-21T14:48:46;12.00;99.90
24800;DHT22;12897;50.812;4.430;2023-11-21T14:51:18;12.10;99.90
24800;DHT22;12897;50.812;4.430;2023-11-21T14:53:57;12.10;99.90
24800;DHT22;12897;50.812;4.430;2023-11-21T14:56:31;12.10;99.90
24800;DHT22;12897;50.812;4.430;2023-11-21T14:59:01;12.10;99.90
24800;DHT22;12897;50.812;4.430;2023-11-21T15:01:43;11.90;99.90
24800;DHT22;12897;50.812;4.430;2023-11-21T15:04:15;11.80;99.90
24800;DHT22;12897;50.812;4.430;2023-11-21T15:06:44;11.80;99.90
24800;DHT22;12897;50.812;4.430;2023-11-21T15:09:13;11.90;99.90
24800;DHT22;12897;50.812;4.430;2023-11-21T15:11:42;11.60;99.90
24800;DHT22;12897;50.812;4.430;2023-11-21T15:14:10;11.60;99.90
24800;DHT22;12897;50.812;4.430;2023-11-21T15:16:39;11.50;99.90
24800;DHT22;12897;50.812;4.430;2023-11-21T15:19:09;11.50;99.90
24800;DHT22;12897;50.812;4.430;2023-11-21T15:21:38;11.40;99.90
24800;DHT22;12897;50.812;4.430;2023-11-21T15:24:05;11.50;99.90
24800;DHT22;12897;50.812;4.430;2023-11-21T15:26:33;11.40;99.90
24800;DHT22;12897;50.812;4.430;2023-11-21T15:29:00;11.40;99.90
24800;DHT22;12897;50.812;4.430;2023-11-21T15:31:28;11.40;99.90
24800;DHT22;12897;50.812;4.430;2023-11-21T15:33:56;11.30;99.90
24800;DHT22;12897;50.812;4.430;2023-11-21T15:36:25;11.30;99.90
24800;DHT22;12897;50.812;4.430;2023-11-21T15:38:54;11.20;99.90
24800;DHT22;12897;50.812;4.430;2023-11-21T15:41:22;11.30;99.90
24800;DHT22;12897;50.812;4.430;2023-11-21T15:43:49;11.40;99.90
24800;DHT22;12897;50.812;4.430;2023-11-21T15:46:17;11.50;99.90
24800;DHT22;12897;50.812;4.430;2023-11-21T15:48:45;11.50;99.90
24800;DHT22;12897;50.812;4.430;2023-11-21T15:51:15;11.50;99.90
24800;DHT22;12897;50.812;4.430;2023-11-21T15:53:43;11.50;99.90
24800;DHT22;12897;50.812;4.430;2023-11-21T15:56:11;11.50;99.90